sensor_id;sensor_type;location;lat;lon;timestamp;temperature;humidity
21635;DHT22;10979;48.306;9.830;2023-04-01T00:02:00;6.90;99.90
21635;DHT22;10979;48.306;9.830;2023-04-01T00:04:26;6.80;99.90
21635;DHT22;10979;48.306;9.830;2023-04-01T00:06:52;6.70;99.90
21635;DHT22;10979;48.306;9.830;2023-04-01T00:09:18;6.70;99.90
21635;DHT22;10979;48.306;9.830;2023-04-01T00:11:43;6.60;99.90
21635;DHT22;10979;48.306;9.830;2023-04-01T00:14:12;6.60;99.90
21635;DHT22;10979;48.306;9.830;2023-04-01T00:16:38;6.60;99.90
21635;DHT22;10979;48.306;9.830;2023-04-01T00:19:03;6.60;99.90
21635;DHT22;10979;48.306;9.830;2023-04-01T00:21:29;6.60;99.90
21635;DHT22;10979;48.306;9.830;2023-04-01T00:23:54;6.60;99.90
21635;DHT22;10979;48.306;9.830;2023-04-01T00:26:20;6.60;99.90
21635;DHT22;10979;48.306;9.830;2023-04-01T00:28:47;6.60;99.90
21635;DHT22;10979;48.306;9.830;2023-04-01T00:31:13;6.50;99.90
21635;DHT22;10979;48.306;9.830;2023-04-01T00:33:39;6.60;99.90
21635;DHT22;10979;48.306;9.830;2023-04-01T00:36:14;6.70;99.90
21635;DHT22;10979;48.306;9.830;2023-04-01T00:38:41;6.60;99.90
21635;DHT22;10979;48.306;9.830;2023-04-01T00:41:08;6.40;99.90
21635;DHT22;10979;48.306;9.830;2023-04-01T00:43:34;6.40;99.90
21635;DHT22;10979;48.306;9.830;2023-04-01T00:46:00;6.30;99.90
21635;DHT22;10979;48.306;9.830;2023-04-01T00:48:32;6.30;99.90
21635;DHT22;10979;48.306;9.830;2023-04-01T00:51:14;6.30;99.90
21635;DHT22;10979;48.306;9.830;2023-04-01T00:53:45;6.30;99.90
21635;DHT22;10979;48.306;9.830;2023-04-01T00:56:33;6.30;99.90
21635;DHT22;10979;48.306;9.830;2023-04-01T00:59:04;6.20;99.90
21635;DHT22;10979;48.306;9.830;2023-04-01T01:01:34;6.10;99.90
21635;DHT22;10979;48.306;9.830;2023-04-01T01:04:01;6.10;99.90
21635;DHT22;10979;48.306;9.830;2023-04-01T01:09:28;6.20;99.90
21635;DHT22;10979;48.306;9.830;2023-04-01T01:12:30;6.20;99.90
21635;DHT22;10979;48.306;9.830;2023-04-01T01:15:36;6.20;99.90
21635;DHT22;10979;48.306;9.830;2023-04-01T01:36:13;6.20;99.90
21635;DHT22;10979;48.306;9.830;2023-04-01T01:38:40;6.20;99.90
21635;DHT22;10979;48.306;9.830;2023-04-01T01:41:07;6.10;99.90
21635;DHT22;10979;48.306;9.830;2023-04-01T01:43:38;6.10;99.90
21635;DHT22;10979;48.306;9.830;2023-04-01T01:46:09;6.00;99.90
21635;DHT22;10979;48.306;9.830;2023-04-01T01:48:37;6.00;99.90
21635;DHT22;10979;48.306;9.830;2023-04-01T01:51:05;6.00;99.90
21635;DHT22;10979;48.306;9.830;2023-04-01T01:53:31;5.90;99.90
21635;DHT22;10979;48.306;9.830;2023-04-01T01:55:57;5.90;99.90
21635;DHT22;10979;48.306;9.830;2023-04-01T01:58:27;5.70;99.90
21635;DHT22;10979;48.306;9.830;2023-04-01T02:00:57;5.70;99.90
21635;DHT22;10979;48.306;9.830;2023-04-01T02:03:25;5.60;99.90
21635;DHT22;10979;48.306;9.830;2023-04-01T02:05:55;5.70;99.90
21635;DHT22;10979;48.306;9.830;2023-04-01T02:08:26;5.70;99.90
21635;DHT22;10979;48.306;9.830;2023-04-01T02:11:00;5.70;99.90
21635;DHT22;10979;48.306;9.830;2023-04-01T02:13:50;5.90;99.90
21635;DHT22;10979;48.306;9.830;2023-04-01T02:16:42;6.00;99.90
21635;DHT22;10979;48.306;9.830;2023-04-01T02:19:10;5.90;99.90
21635;DHT22;10979;48.306;9.830;2023-04-01T02:21:38;5.80;99.90
21635;DHT22;10979;48.306;9.830;2023-04-01T02:24:09;5.80;99.90
21635;DHT22;10979;48.306;9.830;2023-04-01T02:26:35;5.70;99.90
21635;DHT22;10979;48.306;9.830;2023-04-01T02:29:02;5.80;99.90
21635;DHT22;10979;48.306;9.830;2023-04-01T02:31:29;5.90;99.90
21635;DHT22;10979;48.306;9.830;2023-04-01T02:33:56;6.00;99.90
21635;DHT22;10979;48.306;9.830;2023-04-01T02:36:22;6.10;99.90
21635;DHT22;10979;48.306;9.830;2023-04-01T02:38:49;6.10;99.90
21635;DHT22;10979;48.306;9.830;2023-04-01T02:41:16;6.00;99.90
21635;DHT22;10979;48.306;9.830;2023-04-01T02:43:41;6.00;99.90
21635;DHT22;10979;48.306;9.830;2023-04-01T02:46:07;5.80;99.90
21635;DHT22;10979;48.306;9.830;2023-04-01T02:48:32;5.70;99.90
21635;DHT22;10979;48.306;9.830;2023-04-01T02:50:58;5.70;99.90
21635;DHT22;10979;48.306;9.830;2023-04-01T02:53:24;5.70;99.90
21635;DHT22;10979;48.306;9.830;2023-04-01T02:55:49;5.70;99.90
21635;DHT22;10979;48.306;9.830;2023-04-01T02:58:17;5.70;99.90
21635;DHT22;10979;48.306;9.830;2023-04-01T03:00:42;5.70;99.90
21635;DHT22;10979;48.306;9.830;2023-04-01T03:03:09;5.80;99.90
21635;DHT22;10979;48.306;9.830;2023-04-01T03:05:35;5.80;99.90
21635;DHT22;10979;48.306;9.830;2023-04-01T03:08:01;5.90;99.90
21635;DHT22;10979;48.306;9.830;2023-04-01T03:10:26;5.90;99.90
21635;DHT22;10979;48.306;9.830;2023-04-01T03:12:52;5.90;99.90
21635;DHT22;10979;48.306;9.830;2023-04-01T03:15:18;5.80;99.90
21635;DHT22;10979;48.306;9.830;2023-04-01T03:17:43;5.80;99.90
21635;DHT22;10979;48.306;9.830;2023-04-01T03:20:10;5.80;99.90
21635;DHT22;10979;48.306;9.830;2023-04-01T03:22:37;5.80;99.90
21635;DHT22;10979;48.306;9.830;2023-04-01T03:25:03;5.80;99.90
21635;DHT22;10979;48.306;9.830;2023-04-01T03:27:29;5.80;99.90
21635;DHT22;10979;48.306;9.830;2023-04-01T03:29:55;5.80;99.90
21635;DHT22;10979;48.306;9.830;2023-04-01T03:32:20;5.80;99.90
21635;DHT22;10979;48.306;9.830;2023-04-01T03:34:46;5.80;99.90
21635;DHT22;10979;48.306;9.830;2023-04-01T03:37:12;5.80;99.90
21635;DHT22;10979;48.306;9.830;2023-04-01T03:39:37;5.70;99.90
21635;DHT22;10979;48.306;9.830;2023-04-01T03:42:03;5.70;99.90
21635;DHT22;10979;48.306;9.830;2023-04-01T03:44:33;5.80;99.90
21635;DHT22;10979;48.306;9.830;2023-04-01T03:46:59;5.80;99.90
21635;DHT22;10979;48.306;9.830;2023-04-01T03:49:25;5.90;99.90
21635;DHT22;10979;48.306;9.830;2023-04-01T03:51:51;5.90;99.90
21635;DHT22;10979;48.306;9.830;2023-04-01T03:54:17;5.90;99.90
21635;DHT22;10979;48.306;9.830;2023-04-01T03:56:43;6.00;99.90
21635;DHT22;10979;48.306;9.830;2023-04-01T03:59:09;6.00;99.90
21635;DHT22;10979;48.306;9.830;2023-04-01T04:01:35;6.00;99.90
21635;DHT22;10979;48.306;9.830;2023-04-01T04:04:00;6.00;99.90
21635;DHT22;10979;48.306;9.830;2023-04-01T04:06:26;6.10;99.90
21635;DHT22;10979;48.306;9.830;2023-04-01T04:08:52;6.00;99.90
21635;DHT22;10979;48.306;9.830;2023-04-01T04:11:20;6.00;99.90
21635;DHT22;10979;48.306;9.830;2023-04-01T04:13:46;6.10;99.90
21635;DHT22;10979;48.306;9.830;2023-04-01T04:16:13;6.10;99.90
21635;DHT22;10979;48.306;9.830;2023-04-01T04:18:38;6.10;99.90
21635;DHT22;10979;48.306;9.830;2023-04-01T04:21:04;6.10;99.90
21635;DHT22;10979;48.306;9.830;2023-04-01T04:23:30;6.10;99.90
21635;DHT22;10979;48.306;9.830;2023-04-01T04:26:04;6.10;99.90
21635;DHT22;10979;48.306;9.830;2023-04-01T04:28:30;6.10;99.90
21635;DHT22;10979;48.306;9.830;2023-04-01T04:30:57;6.10;99.90
21635;DHT22;10979;48.306;9.830;2023-04-01T04:33:23;6.10;99.90
21635;DHT22;10979;48.306;9.830;2023-04-01T04:35:49;6.10;99.90
21635;DHT22;10979;48.306;9.830;2023-04-01T04:38:16;6.00;99.90
21635;DHT22;10979;48.306;9.830;2023-04-01T04:40:42;5.90;99.90
21635;DHT22;10979;48.306;9.830;2023-04-01T04:43:10;5.70;99.90
21635;DHT22;10979;48.306;9.830;2023-04-01T04:45:36;5.60;99.90
21635;DHT22;10979;48.306;9.830;2023-04-01T04:48:02;5.50;99.90
21635;DHT22;10979;48.306;9.830;2023-04-01T04:50:28;5.50;99.90
21635;DHT22;10979;48.306;9.830;2023-04-01T04:52:53;5.60;99.90
21635;DHT22;10979;48.306;9.830;2023-04-01T04:55:19;5.70;99.90
21635;DHT22;10979;48.306;9.830;2023-04-01T04:57:45;5.70;99.90
21635;DHT22;10979;48.306;9.830;2023-04-01T05:00:10;5.60;99.90
21635;DHT22;10979;48.306;9.830;2023-04-01T05:02:36;5.40;99.90
21635;DHT22;10979;48.306;9.830;2023-04-01T05:05:02;5.30;99.90
21635;DHT22;10979;48.306;9.830;2023-04-01T05:07:28;5.30;99.90
21635;DHT22;10979;48.306;9.830;2023-04-01T05:09:53;5.40;99.90
21635;DHT22;10979;48.306;9.830;2023-04-01T05:12:19;5.50;99.90
21635;DHT22;10979;48.306;9.830;2023-04-01T05:14:44;5.60;99.90
21635;DHT22;10979;48.306;9.830;2023-04-01T05:17:12;5.60;99.90
21635;DHT22;10979;48.306;9.830;2023-04-01T05:19:38;5.70;99.90
21635;DHT22;10979;48.306;9.830;2023-04-01T05:22:04;5.70;99.90
21635;DHT22;10979;48.306;9.830;2023-04-01T05:24:30;5.80;99.90
21635;DHT22;10979;48.306;9.830;2023-04-01T05:26:56;5.90;99.90
21635;DHT22;10979;48.306;9.830;2023-04-01T05:29:23;5.90;99.90
21635;DHT22;10979;48.306;9.830;2023-04-01T05:31:48;5.90;99.90
21635;DHT22;10979;48.306;9.830;2023-04-01T05:34:14;5.80;99.90
21635;DHT22;10979;48.306;9.830;2023-04-01T05:36:40;5.90;99.90
21635;DHT22;10979;48.306;9.830;2023-04-01T05:39:07;6.00;99.90
21635;DHT22;10979;48.306;9.830;2023-04-01T05:41:35;6.10;99.90
21635;DHT22;10979;48.306;9.830;2023-04-01T05:44:00;6.20;99.90
21635;DHT22;10979;48.306;9.830;2023-04-01T05:46:26;6.20;99.90
21635;DHT22;10979;48.306;9.830;2023-04-01T05:48:52;6.20;99.90
21635;DHT22;10979;48.306;9.830;2023-04-01T05:51:17;6.30;99.90
21635;DHT22;10979;48.306;9.830;2023-04-01T05:53:43;6.30;99.90
21635;DHT22;10979;48.306;9.830;2023-04-01T05:56:09;6.30;99.90
21635;DHT22;10979;48.306;9.830;2023-04-01T05:58:35;6.40;99.90
21635;DHT22;10979;48.306;9.830;2023-04-01T06:01:06;6.40;99.90
21635;DHT22;10979;48.306;9.830;2023-04-01T06:03:32;6.50;99.90
21635;DHT22;10979;48.306;9.830;2023-04-01T06:05:58;6.50;99.90
21635;DHT22;10979;48.306;9.830;2023-04-01T06:08:24;6.60;99.90
21635;DHT22;10979;48.306;9.830;2023-04-01T06:36:01;8.20;99.90
21635;DHT22;10979;48.306;9.830;2023-04-01T06:38:55;8.30;99.90
21635;DHT22;10979;48.306;9.830;2023-04-01T06:42:31;9.00;99.90
21635;DHT22;10979;48.306;9.830;2023-04-01T06:55:40;11.40;99.90
21635;DHT22;10979;48.306;9.830;2023-04-01T06:58:19;9.60;99.90
21635;DHT22;10979;48.306;9.830;2023-04-01T07:00:50;9.20;99.90
21635;DHT22;10979;48.306;9.830;2023-04-01T07:03:39;9.00;99.90
21635;DHT22;10979;48.306;9.830;2023-04-01T07:06:09;8.70;99.90
21635;DHT22;10979;48.306;9.830;2023-04-01T07:08:38;8.60;99.90
21635;DHT22;10979;48.306;9.830;2023-04-01T07:11:24;8.70;99.90
21635;DHT22;10979;48.306;9.830;2023-04-01T07:13:59;8.60;99.90
21635;DHT22;10979;48.306;9.830;2023-04-01T07:17:06;8.70;99.90
21635;DHT22;10979;48.306;9.830;2023-04-01T07:19:51;9.40;99.90
21635;DHT22;10979;48.306;9.830;2023-04-01T07:22:32;11.10;99.90
21635;DHT22;10979;48.306;9.830;2023-04-01T07:25:11;9.90;99.90
21635;DHT22;10979;48.306;9.830;2023-04-01T07:27:36;9.50;99.90
21635;DHT22;10979;48.306;9.830;2023-04-01T07:30:06;9.20;99.90
21635;DHT22;10979;48.306;9.830;2023-04-01T07:35:45;8.90;99.90
21635;DHT22;10979;48.306;9.830;2023-04-01T07:41:12;9.20;99.90
21635;DHT22;10979;48.306;9.830;2023-04-01T07:43:54;9.00;99.90
21635;DHT22;10979;48.306;9.830;2023-04-01T07:56:26;8.80;99.90
21635;DHT22;10979;48.306;9.830;2023-04-01T07:59:22;8.70;99.90
21635;DHT22;10979;48.306;9.830;2023-04-01T08:01:53;8.70;99.90
21635;DHT22;10979;48.306;9.830;2023-04-01T08:07:13;8.80;99.90
21635;DHT22;10979;48.306;9.830;2023-04-01T08:09:49;9.00;99.90
21635;DHT22;10979;48.306;9.830;2023-04-01T08:23:17;9.00;99.90
21635;DHT22;10979;48.306;9.830;2023-04-01T08:26:04;9.00;99.90
21635;DHT22;10979;48.306;9.830;2023-04-01T08:34:20;9.50;99.90
21635;DHT22;10979;48.306;9.830;2023-04-01T08:36:58;9.50;99.90
21635;DHT22;10979;48.306;9.830;2023-04-01T08:39:35;9.40;99.90
21635;DHT22;10979;48.306;9.830;2023-04-01T08:47:42;9.40;99.90
21635;DHT22;10979;48.306;9.830;2023-04-01T08:50:31;9.40;99.90
21635;DHT22;10979;48.306;9.830;2023-04-01T08:55:40;9.10;99.90
21635;DHT22;10979;48.306;9.830;2023-04-01T09:01:17;8.90;99.90
21635;DHT22;10979;48.306;9.830;2023-04-01T09:07:14;8.80;99.90
21635;DHT22;10979;48.306;9.830;2023-04-01T09:18:32;8.80;99.90
21635;DHT22;10979;48.306;9.830;2023-04-01T09:21:24;8.70;99.90
21635;DHT22;10979;48.306;9.830;2023-04-01T09:43:30;8.60;99.90
21635;DHT22;10979;48.306;9.830;2023-04-01T09:54:04;8.60;99.90
21635;DHT22;10979;48.306;9.830;2023-04-01T10:22:15;9.50;99.90
21635;DHT22;10979;48.306;9.830;2023-04-01T10:43:55;9.50;99.90
21635;DHT22;10979;48.306;9.830;2023-04-01T10:49:34;9.60;99.90
21635;DHT22;10979;48.306;9.830;2023-04-01T11:03:37;10.00;99.90
21635;DHT22;10979;48.306;9.830;2023-04-01T11:23:22;8.50;99.90
21635;DHT22;10979;48.306;9.830;2023-04-01T11:26:07;8.50;99.90
21635;DHT22;10979;48.306;9.830;2023-04-01T11:28:48;8.30;99.90
21635;DHT22;10979;48.306;9.830;2023-04-01T11:37:33;8.40;99.90
21635;DHT22;10979;48.306;9.830;2023-04-01T11:40:14;8.40;99.90
21635;DHT22;10979;48.306;9.830;2023-04-01T11:46:14;8.50;99.90
21635;DHT22;10979;48.306;9.830;2023-04-01T11:49:04;8.40;99.90
21635;DHT22;10979;48.306;9.830;2023-04-01T11:57:22;8.80;99.90
21635;DHT22;10979;48.306;9.830;2023-04-01T12:00:23;8.80;99.90
21635;DHT22;10979;48.306;9.830;2023-04-01T12:08:44;9.30;99.90
21635;DHT22;10979;48.306;9.830;2023-04-01T12:16:57;10.90;99.90
21635;DHT22;10979;48.306;9.830;2023-04-01T12:19:54;10.60;99.90
21635;DHT22;10979;48.306;9.830;2023-04-01T12:47:00;9.70;99.90
21635;DHT22;10979;48.306;9.830;2023-04-01T12:52:44;9.40;99.90
21635;DHT22;10979;48.306;9.830;2023-04-01T12:55:38;9.40;99.90
21635;DHT22;10979;48.306;9.830;2023-04-01T13:01:01;9.50;99.90
21635;DHT22;10979;48.306;9.830;2023-04-01T13:04:17;9.60;99.90
21635;DHT22;10979;48.306;9.830;2023-04-01T13:09:53;9.60;99.90
21635;DHT22;10979;48.306;9.830;2023-04-01T13:12:34;9.60;99.90
21635;DHT22;10979;48.306;9.830;2023-04-01T13:20:16;9.60;99.90
21635;DHT22;10979;48.306;9.830;2023-04-01T13:23:02;9.60;99.90
21635;DHT22;10979;48.306;9.830;2023-04-01T13:28:19;9.70;99.90
21635;DHT22;10979;48.306;9.830;2023-04-01T13:30:58;10.00;99.90
21635;DHT22;10979;48.306;9.830;2023-04-01T13:33:50;9.90;99.90
21635;DHT22;10979;48.306;9.830;2023-04-01T13:36:59;10.00;99.90
21635;DHT22;10979;48.306;9.830;2023-04-01T13:40:12;10.00;99.90
21635;DHT22;10979;48.306;9.830;2023-04-01T13:42:49;10.10;99.90
